Terminal Aerodrome Forecast
Issued by NWS St Louis, MO

Home | Current Version | Previous Version | Text Only | Print | Product List | Glossary On
Versions: 1 2 3 4 5 6 7 8 9 10 11 12 13 14 15 16 17
000
FTUS43 KLSX 131720
TAFCOU
TAF
KCOU 131720Z 1318/1418 36007KT P6SM OVC070
     FM132300 VRB04KT P6SM SCT070
     FM140300 09006KT P6SM BKN200
     FM141000 13007KT P6SM OVC060
     FM141500 17010KT P6SM VCSH OVC030=

USA.gov is the U.S. government's official web portal to all federal, state and local government web resources and services.